createdAt,value
2018-06-20T00:01:32.390Z,17.83
2018-06-20T00:04:00.063Z,17.76
2018-06-20T00:06:27.829Z,17.66
2018-06-20T00:08:55.574Z,17.57
2018-06-20T00:11:24.357Z,17.56
2018-06-20T00:13:53.058Z,17.59
2018-06-20T00:16:20.739Z,17.65
2018-06-20T00:18:48.680Z,17.63
2018-06-20T00:21:16.383Z,17.55
2018-06-20T00:23:44.176Z,17.42
2018-06-20T00:26:11.875Z,17.36
2018-06-20T00:28:39.693Z,17.30
2018-06-20T00:31:07.505Z,17.36
2018-06-20T00:33:35.206Z,17.27
2018-06-20T00:36:03.381Z,17.15
2018-06-20T00:38:31.315Z,17.18
2018-06-20T00:40:59.289Z,17.16
2018-06-20T00:43:26.956Z,17.36
2018-06-20T00:45:54.623Z,17.10
2018-06-20T00:48:22.302Z,17.00
2018-06-20T00:50:50.033Z,17.05
2018-06-20T00:53:17.741Z,16.97
2018-06-20T00:55:50.952Z,16.97
2018-06-20T00:58:18.833Z,16.96
2018-06-20T01:00:46.538Z,17.00
2018-06-20T01:03:14.282Z,16.90
2018-06-20T01:05:42.014Z,16.80
2018-06-20T01:08:09.674Z,16.80
2018-06-20T01:10:37.375Z,16.75
2018-06-20T01:13:05.072Z,16.77
2018-06-20T01:15:32.802Z,16.72
2018-06-20T01:18:00.488Z,16.71
2018-06-20T01:20:28.177Z,16.71
2018-06-20T01:22:55.879Z,16.68
2018-06-20T01:25:23.562Z,16.80
2018-06-20T01:27:51.217Z,16.68
2018-06-20T01:30:18.910Z,16.74
2018-06-20T01:32:46.599Z,16.63
2018-06-20T01:35:14.289Z,16.58
2018-06-20T01:37:42.006Z,16.53
2018-06-20T01:40:09.678Z,16.49
2018-06-20T01:42:37.365Z,16.54
2018-06-20T01:45:05.038Z,16.66
2018-06-20T01:47:32.805Z,16.67
2018-06-20T01:50:00.527Z,16.58
2018-06-20T01:52:28.194Z,16.62
2018-06-20T01:54:55.887Z,16.51
2018-06-20T01:57:23.590Z,16.51
2018-06-20T01:59:51.259Z,16.58
2018-06-20T02:02:18.938Z,16.45
2018-06-20T02:04:46.613Z,16.35
2018-06-20T02:07:14.323Z,16.28
2018-06-20T02:09:42.015Z,16.30
2018-06-20T02:12:09.674Z,16.22
2018-06-20T02:14:37.367Z,16.17
2018-06-20T02:17:05.045Z,16.16
2018-06-20T02:19:32.786Z,16.21
2018-06-20T02:22:00.453Z,16.12
2018-06-20T02:24:28.139Z,16.06
2018-06-20T02:26:55.846Z,16.07
2018-06-20T02:29:23.549Z,16.00
2018-06-20T02:31:51.216Z,16.01
2018-06-20T02:34:18.883Z,15.96
2018-06-20T02:36:46.619Z,15.92
2018-06-20T02:39:14.218Z,15.92
2018-06-20T02:41:41.917Z,15.92
2018-06-20T02:44:09.575Z,15.85
2018-06-20T02:46:37.267Z,15.84
2018-06-20T02:49:05.134Z,16.03
2018-06-20T02:51:32.815Z,15.89
2018-06-20T02:54:00.467Z,15.80
2018-06-20T02:56:28.436Z,15.78
2018-06-20T02:58:56.095Z,15.82
2018-06-20T03:01:23.767Z,15.81
2018-06-20T03:03:51.456Z,15.84
2018-06-20T03:06:19.114Z,15.84
2018-06-20T03:08:51.333Z,15.83
2018-06-20T03:11:19.026Z,15.82
2018-06-20T03:13:46.727Z,15.75
2018-06-20T03:16:14.418Z,15.73
2018-06-20T03:18:42.106Z,15.66
2018-06-20T03:21:09.781Z,15.62
2018-06-20T03:23:37.455Z,15.62
2018-06-20T03:26:05.141Z,15.62
2018-06-20T03:28:32.831Z,15.59
2018-06-20T03:31:00.524Z,15.57
2018-06-20T03:33:28.251Z,15.58
2018-06-20T03:35:55.966Z,15.48
2018-06-20T03:38:23.711Z,15.41
2018-06-20T03:40:51.430Z,15.40
2018-06-20T03:43:19.078Z,15.46
2018-06-20T03:45:46.774Z,15.43
2018-06-20T03:48:14.423Z,15.45
2018-06-20T03:50:42.123Z,15.42
2018-06-20T03:53:09.791Z,15.55
2018-06-20T03:55:37.558Z,15.49
2018-06-20T03:58:05.234Z,15.68
2018-06-20T04:00:32.953Z,15.68
2018-06-20T04:03:00.658Z,15.90
2018-06-20T04:05:29.900Z,15.82
2018-06-20T04:07:57.894Z,15.79
2018-06-20T04:10:25.796Z,15.69
2018-06-20T04:12:53.478Z,15.73
2018-06-20T04:15:21.195Z,15.88
2018-06-20T04:17:48.871Z,15.96
2018-06-20T04:20:16.531Z,16.00
2018-06-20T04:22:44.276Z,16.09
2018-06-20T04:25:11.998Z,16.32
2018-06-20T04:27:40.734Z,16.46
2018-06-20T04:30:08.459Z,16.77
2018-06-20T04:32:36.342Z,16.57
2018-06-20T04:35:04.035Z,16.85
2018-06-20T04:37:31.731Z,16.89
2018-06-20T04:39:59.421Z,17.07
2018-06-20T04:42:27.098Z,17.24
2018-06-20T04:44:54.834Z,17.53
2018-06-20T04:47:22.540Z,17.70
2018-06-20T04:49:50.218Z,17.75
2018-06-20T04:52:17.938Z,17.92
2018-06-20T04:54:45.651Z,18.25
2018-06-20T04:57:13.326Z,18.50
2018-06-20T04:59:40.999Z,18.68
2018-06-20T05:02:08.690Z,18.67
2018-06-20T05:04:36.381Z,18.96
2018-06-20T05:07:04.049Z,19.16
2018-06-20T05:09:31.766Z,19.30
2018-06-20T05:11:59.435Z,19.58
2018-06-20T05:14:27.259Z,19.82
2018-06-20T05:16:54.930Z,19.90
2018-06-20T05:19:22.590Z,20.01
2018-06-20T05:21:50.303Z,20.21
2018-06-20T05:24:18.357Z,20.45
2018-06-20T05:26:46.019Z,20.68
2018-06-20T05:29:13.690Z,20.93
2018-06-20T05:31:41.398Z,20.64
2018-06-20T05:34:09.066Z,20.76
2018-06-20T05:36:36.784Z,21.00
2018-06-20T05:39:06.094Z,21.04
2018-06-20T05:41:33.783Z,21.22
2018-06-20T05:44:01.512Z,21.32
2018-06-20T05:46:29.204Z,21.70
2018-06-20T05:48:56.874Z,21.72
2018-06-20T05:51:24.571Z,21.79
2018-06-20T05:53:52.270Z,21.82
2018-06-20T05:56:20.045Z,22.23
2018-06-20T05:58:47.736Z,22.43
2018-06-20T06:01:15.455Z,22.59
2018-06-20T06:03:43.167Z,22.73
2018-06-20T06:06:12.878Z,22.83
2018-06-20T06:08:40.864Z,22.76
2018-06-20T06:11:08.821Z,23.30
2018-06-20T06:13:36.795Z,23.32
2018-06-20T06:16:04.496Z,23.51
2018-06-20T06:18:32.518Z,23.77
2018-06-20T06:21:00.251Z,23.95
2018-06-20T06:23:28.464Z,24.17
2018-06-20T06:25:56.620Z,24.16
2018-06-20T06:28:24.591Z,24.36
2018-06-20T06:30:52.326Z,24.25
2018-06-20T06:33:20.031Z,24.07
2018-06-20T06:35:47.796Z,24.51
2018-06-20T06:38:15.522Z,24.72
2018-06-20T06:40:43.209Z,24.92
2018-06-20T06:43:10.903Z,25.54
2018-06-20T06:45:38.607Z,25.49
2018-06-20T06:48:06.298Z,25.78
2018-06-20T06:50:34.367Z,26.16
2018-06-20T06:53:02.228Z,26.49
2018-06-20T06:55:29.988Z,26.70
2018-06-20T06:57:58.058Z,26.81
2018-06-20T07:00:26.153Z,27.07
2018-06-20T07:02:53.870Z,27.74
2018-06-20T07:05:22.605Z,27.94
2018-06-20T07:07:50.546Z,28.41
2018-06-20T07:10:18.290Z,28.65
2018-06-20T07:12:45.977Z,29.08
2018-06-20T07:15:13.686Z,29.37
2018-06-20T07:17:41.422Z,29.35
2018-06-20T07:20:09.151Z,29.74
2018-06-20T07:22:36.926Z,30.11
2018-06-20T07:25:04.995Z,30.16
2018-06-20T07:27:32.691Z,30.29
2018-06-20T07:30:00.447Z,30.65
2018-06-20T07:32:28.226Z,30.75
2018-06-20T07:34:56.370Z,31.25
2018-06-20T07:37:24.082Z,31.89
2018-06-20T07:39:51.814Z,31.91
2018-06-20T07:42:19.696Z,32.49
2018-06-20T07:44:47.396Z,32.55
2018-06-20T07:47:15.144Z,32.21
2018-06-20T07:49:42.813Z,31.59
2018-06-20T07:52:11.601Z,31.49
2018-06-20T07:54:39.275Z,32.36
2018-06-20T07:57:06.998Z,33.01
2018-06-20T07:59:40.446Z,32.69
2018-06-20T08:02:19.329Z,32.54
2018-06-20T08:04:52.712Z,33.20
2018-06-20T08:07:26.109Z,33.76
2018-06-20T08:09:59.311Z,33.40
2018-06-20T08:12:32.781Z,34.46
2018-06-20T08:15:06.270Z,34.76
2018-06-20T08:17:39.772Z,34.56
2018-06-20T08:20:13.947Z,34.27
2018-06-20T08:22:41.671Z,33.66
2018-06-20T08:25:09.390Z,33.56
2018-06-20T08:27:37.062Z,33.74
2018-06-20T08:30:06.070Z,32.91
2018-06-20T08:32:34.214Z,33.15
2018-06-20T08:35:02.414Z,32.63
2018-06-20T08:37:30.162Z,32.28
2018-06-20T08:39:58.024Z,32.22
2018-06-20T08:42:25.830Z,32.96
2018-06-20T08:44:54.195Z,33.45
2018-06-20T08:47:21.954Z,34.02
2018-06-20T08:49:49.623Z,34.69
2018-06-20T08:52:17.342Z,34.95
2018-06-20T08:54:45.031Z,35.57
2018-06-20T08:57:12.735Z,35.24
2018-06-20T08:59:40.430Z,35.91
2018-06-20T09:02:08.332Z,36.73
2018-06-20T09:04:41.674Z,37.29
2018-06-20T09:07:14.964Z,37.24
2018-06-20T09:09:48.304Z,36.79
2018-06-20T09:12:21.694Z,36.81
2018-06-20T09:14:55.080Z,36.30
2018-06-20T09:17:28.427Z,36.83
2018-06-20T09:19:56.871Z,36.56
2018-06-20T09:22:24.564Z,36.56
2018-06-20T09:24:52.282Z,37.07
2018-06-20T09:27:20.004Z,37.77
2018-06-20T09:29:47.679Z,37.91
2018-06-20T09:32:15.551Z,37.82
2018-06-20T09:34:43.730Z,38.07
2018-06-20T09:37:11.494Z,37.85
2018-06-20T09:39:39.243Z,37.64
2018-06-20T09:42:06.943Z,37.36
2018-06-20T09:44:34.621Z,36.99
2018-06-20T09:47:02.385Z,37.40
2018-06-20T09:49:30.068Z,37.44
2018-06-20T09:51:57.804Z,37.58
2018-06-20T09:54:25.650Z,37.53
2018-06-20T09:56:53.386Z,37.70
2018-06-20T09:59:26.719Z,37.27
2018-06-20T10:02:00.030Z,37.74
2018-06-20T10:04:33.340Z,37.82
2018-06-20T10:07:06.759Z,37.62
2018-06-20T10:09:39.953Z,37.12
2018-06-20T10:13:13.600Z,36.83
2018-06-20T10:15:41.290Z,36.50
2018-06-20T10:18:09.009Z,36.60
2018-06-20T10:20:36.707Z,36.36
2018-06-20T10:23:04.485Z,36.90
2018-06-20T10:25:32.179Z,36.89
2018-06-20T10:27:59.946Z,37.17
2018-06-20T10:30:27.667Z,36.90
2018-06-20T10:32:55.361Z,36.65
2018-06-20T10:35:23.487Z,36.83
2018-06-20T10:37:51.186Z,36.61
2018-06-20T10:40:19.307Z,36.54
2018-06-20T10:42:47.063Z,36.16
2018-06-20T10:45:20.434Z,36.70
2018-06-20T10:47:49.377Z,36.49
2018-06-20T10:50:17.117Z,36.33
2018-06-20T10:52:44.823Z,35.46
2018-06-20T10:55:13.987Z,36.03
2018-06-20T10:57:47.261Z,36.45
2018-06-20T11:00:20.679Z,36.65
2018-06-20T11:02:53.951Z,37.15
2018-06-20T11:05:27.383Z,36.60
2018-06-20T11:08:00.691Z,36.31
2018-06-20T11:10:35.221Z,35.61
2018-06-20T11:13:09.471Z,35.65
2018-06-20T11:15:37.418Z,35.29
2018-06-20T11:18:05.158Z,34.53
2018-06-20T11:20:38.578Z,33.87
2018-06-20T11:23:06.325Z,33.89
2018-06-20T11:25:34.022Z,33.83
2018-06-20T11:28:06.287Z,33.66
2018-06-20T11:30:34.047Z,33.84
2018-06-20T11:33:01.870Z,33.73
2018-06-20T11:35:29.709Z,33.07
2018-06-20T11:37:57.438Z,32.87
2018-06-20T11:40:25.171Z,32.65
2018-06-20T11:42:52.886Z,32.43
2018-06-20T11:45:20.572Z,32.76
2018-06-20T11:47:48.298Z,32.90
2018-06-20T11:50:16.015Z,32.76
2018-06-20T11:52:49.366Z,32.60
2018-06-20T11:55:22.542Z,32.54
2018-06-20T11:57:50.264Z,32.36
2018-06-20T12:00:23.574Z,31.96
2018-06-20T12:02:56.907Z,32.09
2018-06-20T12:05:30.144Z,32.06
2018-06-20T12:08:03.411Z,31.86
2018-06-20T12:10:36.753Z,31.67
2018-06-20T12:15:16.336Z,31.55
2018-06-20T12:17:49.644Z,31.25
2018-06-20T12:20:22.874Z,31.25
2018-06-20T12:22:56.071Z,30.82
2018-06-20T12:25:29.523Z,31.12
2018-06-20T12:28:02.969Z,30.87
2018-06-20T12:30:36.351Z,30.86
2018-06-20T12:33:09.735Z,30.87
2018-06-20T12:35:42.978Z,30.84
2018-06-20T12:38:16.140Z,30.98
2018-06-20T12:40:49.380Z,30.72
2018-06-20T12:43:22.766Z,30.59
2018-06-20T12:45:55.015Z,30.32
2018-06-20T12:48:22.784Z,30.25
2018-06-20T12:50:50.503Z,30.21
2018-06-20T12:53:18.201Z,30.06
2018-06-20T12:55:46.951Z,30.03
2018-06-20T12:58:14.670Z,29.99
2018-06-20T13:00:42.326Z,30.06
2018-06-20T13:03:10.030Z,30.19
2018-06-20T13:05:37.762Z,30.22
2018-06-20T13:08:05.425Z,30.05
2018-06-20T13:10:33.386Z,30.10
2018-06-20T13:13:01.065Z,30.24
2018-06-20T13:15:28.775Z,30.13
2018-06-20T13:17:56.591Z,30.19
2018-06-20T13:20:24.323Z,30.17
2018-06-20T13:22:51.995Z,30.10
2018-06-20T13:25:19.711Z,30.02
2018-06-20T13:27:48.127Z,29.78
2018-06-20T13:30:15.903Z,29.89
2018-06-20T13:32:49.334Z,29.67
2018-06-20T13:35:22.527Z,29.75
2018-06-20T13:37:56.022Z,29.69
2018-06-20T13:40:29.255Z,29.41
2018-06-20T13:43:02.828Z,29.47
2018-06-20T13:45:36.103Z,29.37
2018-06-20T13:48:09.467Z,29.34
2018-06-20T13:50:37.156Z,29.22
2018-06-20T13:53:04.846Z,29.35
2018-06-20T13:55:32.612Z,29.53
2018-06-20T13:58:00.375Z,29.38
2018-06-20T14:00:28.210Z,29.17
2018-06-20T14:02:56.060Z,29.33
2018-06-20T14:05:23.819Z,29.58
2018-06-20T14:07:51.514Z,29.61
2018-06-20T14:10:19.265Z,29.55
2018-06-20T14:12:46.963Z,29.80
2018-06-20T14:15:14.690Z,29.73
2018-06-20T14:17:42.403Z,29.45
2018-06-20T14:20:15.813Z,29.36
2018-06-20T14:22:43.523Z,29.26
2018-06-20T14:25:11.275Z,29.14
2018-06-20T14:27:38.964Z,29.34
2018-06-20T14:30:06.725Z,29.24
2018-06-20T14:32:40.208Z,29.25
2018-06-20T14:35:23.098Z,29.20
2018-06-20T14:37:56.396Z,29.29
2018-06-20T14:40:29.715Z,29.37
2018-06-20T14:43:02.676Z,29.31
2018-06-20T14:45:36.215Z,29.13
2018-06-20T14:48:03.898Z,29.21
2018-06-20T14:50:31.577Z,29.22
2018-06-20T14:52:59.294Z,29.47
2018-06-20T14:55:27.051Z,29.39
2018-06-20T14:57:54.755Z,29.30
2018-06-20T15:00:22.440Z,29.34
2018-06-20T15:02:50.179Z,29.22
2018-06-20T15:05:17.864Z,29.17
2018-06-20T15:07:45.604Z,29.12
2018-06-20T15:10:13.305Z,29.03
2018-06-20T15:12:40.991Z,29.07
2018-06-20T15:15:08.741Z,29.18
2018-06-20T15:17:36.454Z,29.13
2018-06-20T15:20:04.220Z,29.05
2018-06-20T15:22:37.679Z,29.10
2018-06-20T15:25:05.371Z,29.07
2018-06-20T15:27:38.671Z,29.19
2018-06-20T15:30:12.158Z,29.14
2018-06-20T15:32:45.415Z,29.13
2018-06-20T15:35:18.669Z,29.23
2018-06-20T15:37:52.103Z,29.27
2018-06-20T15:40:20.327Z,29.19
2018-06-20T15:42:48.020Z,29.15
2018-06-20T15:45:15.723Z,29.12
2018-06-20T15:47:43.446Z,29.18
2018-06-20T15:50:11.162Z,29.02
2018-06-20T15:52:38.843Z,29.02
2018-06-20T15:55:06.539Z,28.77
2018-06-20T15:57:34.270Z,28.66
2018-06-20T16:00:01.968Z,28.75
2018-06-20T16:02:29.732Z,28.73
2018-06-20T16:04:57.402Z,28.72
2018-06-20T16:07:25.182Z,28.80
2018-06-20T16:09:57.959Z,28.84
2018-06-20T16:12:26.434Z,28.76
2018-06-20T16:14:54.583Z,28.61
2018-06-20T16:17:22.256Z,28.50
2018-06-20T16:19:55.673Z,28.43
2018-06-20T16:22:29.131Z,28.52
2018-06-20T16:25:02.530Z,28.53
2018-06-20T16:27:36.051Z,28.42
2018-06-20T16:30:09.298Z,28.33
2018-06-20T16:32:37.187Z,28.37
2018-06-20T16:35:04.879Z,28.48
2018-06-20T16:37:32.614Z,28.55
2018-06-20T16:40:00.275Z,28.47
2018-06-20T16:42:28.330Z,28.55
2018-06-20T16:44:56.017Z,28.32
2018-06-20T16:47:23.718Z,28.27
2018-06-20T16:49:51.431Z,28.25
2018-06-20T16:52:19.173Z,28.21
2018-06-20T16:54:46.885Z,28.14
2018-06-20T16:57:14.596Z,28.04
2018-06-20T16:59:42.282Z,28.06
2018-06-20T17:02:15.642Z,28.14
2018-06-20T17:04:43.348Z,28.09
2018-06-20T17:07:15.624Z,28.02
2018-06-20T17:09:43.401Z,27.97
2018-06-20T17:12:16.741Z,27.87
2018-06-20T17:14:50.099Z,27.91
2018-06-20T17:17:24.584Z,27.85
2018-06-20T17:19:57.795Z,27.91
2018-06-20T17:22:31.084Z,27.82
2018-06-20T17:25:04.512Z,27.77
2018-06-20T17:27:32.357Z,27.78
2018-06-20T17:30:00.087Z,27.80
2018-06-20T17:32:27.819Z,27.79
2018-06-20T17:34:56.028Z,27.86
2018-06-20T17:37:23.706Z,27.69
2018-06-20T17:39:51.459Z,27.55
2018-06-20T17:42:19.838Z,27.54
2018-06-20T17:44:47.664Z,27.56
2018-06-20T17:47:15.371Z,27.57
2018-06-20T17:49:43.074Z,27.56
2018-06-20T17:52:10.821Z,27.46
2018-06-20T17:54:38.535Z,27.42
2018-06-20T17:57:06.661Z,27.51
2018-06-20T17:59:35.021Z,27.34
2018-06-20T18:02:02.747Z,27.42
2018-06-20T18:04:36.188Z,27.32
2018-06-20T18:07:09.650Z,27.37
2018-06-20T18:09:43.049Z,27.32
2018-06-20T18:12:16.300Z,27.28
2018-06-20T18:14:49.673Z,27.27
2018-06-20T18:17:17.421Z,27.18
2018-06-20T18:19:45.091Z,27.27
2018-06-20T18:22:12.806Z,27.19
2018-06-20T18:24:40.532Z,27.14
2018-06-20T18:27:08.319Z,27.05
2018-06-20T18:29:35.981Z,27.07
2018-06-20T18:32:03.825Z,26.96
2018-06-20T18:34:31.648Z,27.11
2018-06-20T18:36:59.406Z,26.94
2018-06-20T18:39:27.182Z,27.11
2018-06-20T18:41:54.864Z,27.03
2018-06-20T18:44:22.661Z,26.91
2018-06-20T18:46:50.378Z,26.85
2018-06-20T18:49:18.077Z,26.92
2018-06-20T18:51:45.771Z,26.73
2018-06-20T18:54:13.471Z,26.63
2018-06-20T18:56:41.204Z,26.57
2018-06-20T18:59:14.506Z,26.65
2018-06-20T19:01:47.824Z,26.80
2018-06-20T19:04:21.062Z,26.63
2018-06-20T19:06:54.613Z,26.57
2018-06-20T19:09:22.934Z,26.50
2018-06-20T19:11:50.575Z,26.39
2018-06-20T19:14:18.298Z,26.46
2018-06-20T19:16:45.942Z,26.49
2018-06-20T19:19:13.610Z,26.61
2018-06-20T19:21:41.291Z,26.42
2018-06-20T19:24:09.023Z,26.30
2018-06-20T19:26:36.690Z,26.41
2018-06-20T19:29:04.469Z,26.31
2018-06-20T19:31:32.249Z,26.28
2018-06-20T19:33:59.937Z,26.03
2018-06-20T19:36:27.657Z,25.98
2018-06-20T19:38:55.385Z,25.98
2018-06-20T19:41:23.109Z,25.70
2018-06-20T19:43:56.461Z,25.69
2018-06-20T19:46:24.150Z,25.48
2018-06-20T19:48:51.845Z,25.37
2018-06-20T19:51:19.675Z,25.33
2018-06-20T19:53:47.323Z,25.26
2018-06-20T19:56:15.315Z,25.14
2018-06-20T19:58:43.041Z,25.06
2018-06-20T20:01:10.703Z,24.98
2018-06-20T20:03:38.372Z,25.05
2018-06-20T20:06:06.158Z,25.08
2018-06-20T20:08:34.076Z,24.86
2018-06-20T20:11:01.675Z,24.77
2018-06-20T20:13:29.335Z,24.61
2018-06-20T20:15:57.077Z,24.52
2018-06-20T20:18:24.738Z,24.53
2018-06-20T20:20:52.408Z,24.44
2018-06-20T20:23:20.057Z,24.44
2018-06-20T20:25:47.726Z,24.33
2018-06-20T20:28:15.400Z,24.32
2018-06-20T20:30:43.003Z,24.22
2018-06-20T20:33:10.690Z,24.19
2018-06-20T20:35:38.395Z,24.12
2018-06-20T20:38:06.059Z,24.02
2018-06-20T20:40:33.743Z,24.13
2018-06-20T20:43:01.370Z,24.00
2018-06-20T20:45:29.098Z,23.99
2018-06-20T20:47:56.823Z,23.87
2018-06-20T20:50:24.555Z,23.77
2018-06-20T20:52:52.190Z,23.79
2018-06-20T20:55:19.858Z,23.80
2018-06-20T20:57:47.531Z,23.71
2018-06-20T21:00:15.240Z,23.57
2018-06-20T21:02:42.934Z,23.45
2018-06-20T21:05:10.614Z,23.37
2018-06-20T21:07:38.315Z,23.27
2018-06-20T21:10:06.011Z,23.22
2018-06-20T21:12:34.704Z,23.18
2018-06-20T21:15:02.703Z,23.23
2018-06-20T21:17:30.390Z,23.23
2018-06-20T21:19:58.097Z,23.33
2018-06-20T21:22:25.795Z,23.41
2018-06-20T21:24:53.786Z,23.46
2018-06-20T21:27:21.433Z,23.60
2018-06-20T21:29:49.054Z,23.53
2018-06-20T21:32:16.804Z,23.52
2018-06-20T21:34:44.458Z,23.51
2018-06-20T21:37:12.123Z,23.31
2018-06-20T21:39:40.143Z,23.55
2018-06-20T21:42:07.861Z,23.52
2018-06-20T21:44:35.493Z,23.18
2018-06-20T21:47:03.217Z,23.06
2018-06-20T21:49:30.902Z,23.12
2018-06-20T21:51:58.564Z,23.14
2018-06-20T21:54:26.189Z,22.96
2018-06-20T21:56:53.861Z,22.97
2018-06-20T21:59:21.572Z,22.87
2018-06-20T22:01:49.238Z,22.65
2018-06-20T22:04:16.974Z,22.56
2018-06-20T22:06:44.695Z,22.33
2018-06-20T22:09:12.390Z,22.48
2018-06-20T22:11:40.073Z,22.35
2018-06-20T22:14:09.168Z,22.42
2018-06-20T22:16:37.522Z,22.25
2018-06-20T22:19:05.333Z,21.95
2018-06-20T22:21:33.150Z,21.95
2018-06-20T22:24:00.771Z,21.85
2018-06-20T22:26:28.604Z,21.93
2018-06-20T22:28:56.542Z,21.95
2018-06-20T22:31:24.254Z,22.01
2018-06-20T22:33:52.266Z,21.86
2018-06-20T22:36:19.977Z,21.73
2018-06-20T22:38:47.587Z,21.71
2018-06-20T22:41:15.378Z,21.63
2018-06-20T22:43:43.052Z,21.72
2018-06-20T22:46:10.750Z,21.66
2018-06-20T22:48:38.367Z,21.59
2018-06-20T22:51:06.018Z,21.74
2018-06-20T22:53:33.670Z,21.69
2018-06-20T22:56:01.322Z,21.67
2018-06-20T22:58:29.024Z,21.63
2018-06-20T23:00:56.706Z,21.60
2018-06-20T23:03:24.410Z,21.71
2018-06-20T23:05:52.081Z,21.60
2018-06-20T23:08:19.958Z,21.58
2018-06-20T23:10:47.613Z,21.47
2018-06-20T23:13:15.345Z,21.56
2018-06-20T23:15:43.065Z,21.68
2018-06-20T23:18:10.770Z,21.58
2018-06-20T23:20:38.468Z,21.42
2018-06-20T23:23:06.174Z,21.27
2018-06-20T23:25:33.905Z,21.18
2018-06-20T23:28:01.558Z,21.13
2018-06-20T23:30:29.256Z,21.10
2018-06-20T23:32:56.926Z,21.11
2018-06-20T23:35:24.738Z,21.13
2018-06-20T23:37:52.398Z,21.13
2018-06-20T23:40:20.144Z,21.13
2018-06-20T23:42:47.834Z,21.08
2018-06-20T23:45:15.519Z,21.04
2018-06-20T23:47:43.259Z,21.01
2018-06-20T23:50:10.962Z,20.97
2018-06-20T23:52:38.669Z,20.93
2018-06-20T23:55:06.470Z,20.89
2018-06-20T23:57:34.395Z,20.87
